Time;durP1;ratioP1;P1;durP2;ratioP2;P2;SDS_P1;SDS_P2;PMS_P1;PMS_P2;Temp;Humidity;BMP_temperature;BMP_pressure;BME280_temperature;BME280_humidity;BME280_pressure;Samples;Min_cycle;Max_cycle;Signal;HPM_P1;HPM_P2
2022/01/17 00:00:14;;;;;;;21.40;3.13;;;4.50;99.90;;;;;;5100328;28;20227;-70
2022/01/17 00:02:41;;;;;;;22.97;3.20;;;4.40;99.90;;;;;;5105680;28;20179;-72
2022/01/17 00:05:08;;;;;;;14.00;3.07;;;4.40;99.90;;;;;;5096413;28;20190;-71
2022/01/17 00:07:34;;;;;;;13.80;2.63;;;4.30;99.90;;;;;;5113592;28;20172;-71
2022/01/17 00:10:00;;;;;;;22.70;3.10;;;4.30;99.90;;;;;;5096980;28;20631;-72
2022/01/17 00:12:26;;;;;;;23.80;3.80;;;4.20;99.90;;;;;;5093981;28;20164;-72
2022/01/17 00:14:55;;;;;;;19.90;3.50;;;4.20;99.90;;;;;;5093704;28;20180;-72
2022/01/17 00:19:52;;;;;;;22.53;3.80;;;4.20;99.90;;;;;;5093327;28;20684;-71
2022/01/17 00:22:20;;;;;;;21.63;3.37;;;4.20;99.90;;;;;;5096103;28;20190;-71
2022/01/17 00:24:47;;;;;;;17.50;3.23;;;4.20;99.90;;;;;;5107712;28;20541;-71
2022/01/17 00:27:13;;;;;;;22.73;3.53;;;4.30;99.90;;;;;;5097709;28;20245;-71
2022/01/17 00:29:39;;;;;;;14.70;2.90;;;4.30;99.90;;;;;;5093265;28;20208;-71
2022/01/17 00:32:05;;;;;;;21.87;3.13;;;4.20;99.90;;;;;;5098110;28;20633;-70
2022/01/17 00:34:31;;;;;;;21.70;2.50;;;4.20;99.90;;;;;;5113366;28;20175;-71
2022/01/17 00:36:57;;;;;;;28.67;3.03;;;4.10;99.90;;;;;;5113182;28;20228;-71
2022/01/17 00:39:24;;;;;;;14.73;2.73;;;4.10;99.90;;;;;;5101563;28;20678;-71
2022/01/17 00:41:50;;;;;;;17.03;2.73;;;4.00;99.90;;;;;;5091643;28;20180;-72
2022/01/17 00:44:21;;;;;;;14.03;2.40;;;4.00;99.90;;;;;;5093239;28;20180;-72
2022/01/17 00:46:47;;;;;;;17.97;2.43;;;3.90;99.90;;;;;;5111428;28;20241;-71
2022/01/17 00:49:13;;;;;;;19.00;2.33;;;3.80;99.90;;;;;;5104970;28;20215;-72
2022/01/17 00:51:39;;;;;;;23.73;2.90;;;3.60;99.90;;;;;;5096573;28;20570;-72
2022/01/17 00:54:04;;;;;;;13.07;3.10;;;3.50;99.90;;;;;;5105641;28;20655;-71
2022/01/17 00:56:30;;;;;;;17.27;2.90;;;3.40;99.90;;;;;;5092812;28;20698;-71
2022/01/17 00:58:56;;;;;;;29.63;3.80;;;3.30;99.90;;;;;;5096388;28;20648;-71
2022/01/17 01:01:22;;;;;;;23.37;3.00;;;3.30;99.90;;;;;;5093666;28;20525;-71
2022/01/17 01:03:48;;;;;;;24.33;3.63;;;3.30;99.90;;;;;;5110697;28;20198;-70
2022/01/17 01:06:14;;;;;;;22.67;3.00;;;3.30;99.90;;;;;;5112861;28;20175;-70
2022/01/17 01:08:40;;;;;;;21.53;2.97;;;3.30;99.90;;;;;;5108527;28;20207;-70
2022/01/17 01:11:07;;;;;;;18.23;2.70;;;3.20;99.90;;;;;;5092481;28;20200;-70
2022/01/17 01:13:33;;;;;;;22.87;3.07;;;3.20;99.90;;;;;;5092571;28;20175;-70
2022/01/17 01:21:44;;;;;;;21.37;3.03;;;3.10;99.90;;;;;;5111872;28;20179;-73
2022/01/17 01:29:19;;;;;;;17.07;2.47;;;3.00;99.90;;;;;;5092209;28;20763;-70
2022/01/17 01:34:11;;;;;;;17.80;3.03;;;3.00;99.90;;;;;;5092339;28;20635;-70
2022/01/17 01:36:38;;;;;;;24.70;3.50;;;2.90;99.90;;;;;;5092228;28;20183;-70
2022/01/17 01:39:05;;;;;;;16.80;2.90;;;2.90;99.90;;;;;;5121005;27;20176;-72
2022/01/17 01:41:43;;;;;;;18.13;3.30;;;2.80;99.90;;;;;;5092086;28;20258;-71
2022/01/17 01:44:17;;;;;;;19.00;3.30;;;2.80;99.90;;;;;;5092010;28;20168;-70
2022/01/17 01:46:44;;;;;;;18.00;3.53;;;2.80;99.90;;;;;;5090511;28;20218;-70
2022/01/17 01:49:10;;;;;;;25.57;3.00;;;2.80;99.90;;;;;;5091778;28;20239;-70
2022/01/17 01:51:36;;;;;;;23.07;2.90;;;2.80;99.90;;;;;;5092914;28;20190;-70
2022/01/17 01:54:03;;;;;;;18.97;3.10;;;2.80;99.90;;;;;;5111771;28;20252;-71
2022/01/17 01:56:30;;;;;;;18.97;3.00;;;2.80;99.90;;;;;;5111324;28;20227;-71
2022/01/17 01:58:56;;;;;;;27.77;3.53;;;2.80;99.90;;;;;;5091715;28;20167;-75
2022/01/17 02:01:22;;;;;;;23.20;3.03;;;2.80;99.90;;;;;;5104434;28;20237;-75
2022/01/17 02:03:48;;;;;;;19.47;2.80;;;2.80;99.90;;;;;;5102737;28;20560;-74
2022/01/17 02:06:13;;;;;;;22.30;2.80;;;2.70;99.90;;;;;;5104772;28;20182;-74
2022/01/17 02:08:39;;;;;;;14.40;2.93;;;2.70;99.90;;;;;;5091538;28;20571;-74
2022/01/17 02:11:07;;;;;;;19.97;2.87;;;2.70;99.90;;;;;;5091527;28;20665;-73
2022/01/17 02:13:33;;;;;;;17.80;2.97;;;2.80;99.90;;;;;;5091650;28;20213;-73
2022/01/17 02:16:03;;;;;;;24.87;2.87;;;2.60;99.90;;;;;;5092485;28;20223;-76
2022/01/17 02:18:31;;;;;;;26.83;2.77;;;2.60;99.90;;;;;;5093339;28;20171;-73
2022/01/17 02:23:47;;;;;;;18.63;2.80;;;2.50;99.90;;;;;;5102705;28;20235;-77
2022/01/17 02:26:15;;;;;;;23.57;3.00;;;2.50;99.90;;;;;;5100977;28;20167;-79
2022/01/17 02:28:50;;;;;;;14.07;2.97;;;2.40;99.90;;;;;;5094856;28;20287;-78
2022/01/17 02:31:16;;;;;;;16.10;3.27;;;2.40;99.90;;;;;;5095489;28;20166;-79
2022/01/17 02:33:43;;;;;;;19.07;2.73;;;2.40;99.90;;;;;;5092159;28;20229;-79
2022/01/17 02:36:10;;;;;;;24.80;2.63;;;2.40;99.90;;;;;;5091985;28;20522;-79
2022/01/17 02:38:38;;;;;;;15.97;3.00;;;2.40;99.90;;;;;;5098361;28;20258;-79
2022/01/17 02:41:04;;;;;;;12.30;2.43;;;2.40;99.90;;;;;;5091534;28;20198;-80
2022/01/17 02:43:31;;;;;;;17.10;2.43;;;2.40;99.90;;;;;;5091691;28;20183;-79
2022/01/17 02:48:27;;;;;;;22.73;3.20;;;2.40;99.90;;;;;;5099786;28;20614;-79
2022/01/17 02:50:53;;;;;;;29.37;3.20;;;2.40;99.90;;;;;;5094373;28;20168;-80
2022/01/17 02:53:19;;;;;;;19.63;2.87;;;2.30;99.90;;;;;;5099883;28;20305;-80
2022/01/17 02:55:51;;;;;;;22.17;2.90;;;2.30;99.90;;;;;;5108609;28;20217;-83
2022/01/17 02:58:20;;;;;;;20.23;2.53;;;2.30;99.90;;;;;;5091077;28;20168;-84
2022/01/17 03:00:47;;;;;;;22.13;2.83;;;2.30;99.90;;;;;;5105932;28;20174;-83
2022/01/17 03:03:14;;;;;;;17.10;2.73;;;2.20;99.90;;;;;;5111516;28;20715;-84
2022/01/17 03:05:41;;;;;;;16.93;2.53;;;2.20;99.90;;;;;;5110165;28;20175;-83
2022/01/17 03:08:07;;;;;;;22.63;3.10;;;2.20;99.90;;;;;;5094157;28;20204;-82
2022/01/17 03:10:43;;;;;;;17.60;2.93;;;2.20;99.90;;;;;;5091064;28;20228;-82
2022/01/17 03:13:26;;;;;;;18.87;2.73;;;2.10;99.90;;;;;;5091330;28;20172;-84
2022/01/17 03:15:57;;;;;;;23.83;2.70;;;2.10;99.90;;;;;;5091355;28;20246;-83
2022/01/17 03:18:26;;;;;;;21.57;2.53;;;2.00;99.90;;;;;;5090810;28;20196;-82
2022/01/17 03:20:53;;;;;;;22.60;2.83;;;2.00;99.90;;;;;;5090664;28;20195;-78
2022/01/17 03:23:19;;;;;;;23.40;3.10;;;1.90;99.90;;;;;;5090672;28;20172;-76
2022/01/17 03:25:45;;;;;;;17.77;2.70;;;1.90;99.90;;;;;;5091923;28;20179;-76
2022/01/17 03:28:11;;;;;;;21.37;2.80;;;1.90;99.90;;;;;;5093101;28;20214;-76
2022/01/17 03:30:37;;;;;;;19.07;3.17;;;1.90;99.90;;;;;;5090628;28;20175;-76
2022/01/17 03:33:07;;;;;;;20.63;3.10;;;1.90;99.90;;;;;;5107220;28;20273;-76
2022/01/17 03:35:33;;;;;;;12.60;2.67;;;1.80;99.90;;;;;;5109930;28;20163;-75
2022/01/17 03:38:00;;;;;;;23.87;3.20;;;1.90;99.90;;;;;;5090610;28;20172;-74
2022/01/17 03:40:26;;;;;;;17.33;3.70;;;1.80;99.90;;;;;;5090581;28;20176;-74
2022/01/17 03:42:52;;;;;;;18.27;3.63;;;1.80;99.90;;;;;;5090713;28;20218;-74
2022/01/17 03:45:18;;;;;;;20.83;3.70;;;1.80;99.90;;;;;;5094085;28;20216;-74
2022/01/17 03:47:49;;;;;;;24.80;4.13;;;1.80;99.90;;;;;;5094169;28;20199;-75
2022/01/17 03:50:18;;;;;;;21.87;4.33;;;1.80;99.90;;;;;;5108607;28;20302;-74
2022/01/17 03:52:44;;;;;;;27.60;4.43;;;1.80;99.90;;;;;;5112603;28;20179;-74
2022/01/17 03:55:12;;;;;;;15.23;4.00;;;1.80;99.90;;;;;;5114502;28;20183;-73
2022/01/17 03:57:38;;;;;;;23.07;4.37;;;1.80;99.90;;;;;;5113904;28;20167;-74
2022/01/17 04:00:07;;;;;;;14.73;3.87;;;1.80;99.90;;;;;;5112572;28;20281;-74
2022/01/17 04:02:32;;;;;;;41.73;4.43;;;1.90;99.90;;;;;;5094096;28;20183;-74
2022/01/17 04:04:58;;;;;;;22.87;4.40;;;1.80;99.90;;;;;;5094004;28;20524;-74
2022/01/17 04:07:24;;;;;;;17.27;3.53;;;1.90;99.90;;;;;;5097042;27;20602;-74
2022/01/17 04:09:50;;;;;;;17.60;2.97;;;1.90;99.90;;;;;;5103151;28;20206;-74
2022/01/17 04:12:15;;;;;;;17.40;3.43;;;1.80;99.90;;;;;;5103275;28;20170;-74
2022/01/17 04:14:41;;;;;;;20.03;3.47;;;1.80;99.90;;;;;;5096046;28;20636;-74
2022/01/17 04:17:07;;;;;;;17.63;3.50;;;1.90;99.90;;;;;;5093674;28;20171;-74
2022/01/17 04:19:33;;;;;;;19.43;3.27;;;1.80;99.90;;;;;;5093362;28;20228;-74
2022/01/17 04:22:00;;;;;;;16.37;3.77;;;1.90;99.90;;;;;;5094900;28;20187;-74
2022/01/17 04:24:26;;;;;;;26.03;2.97;;;1.80;99.90;;;;;;5097274;28;20168;-74
2022/01/17 04:26:52;;;;;;;32.20;3.80;;;1.80;99.90;;;;;;5093468;28;20676;-74
2022/01/17 04:29:19;;;;;;;19.73;3.63;;;1.80;99.90;;;;;;5093334;28;20218;-74
2022/01/17 04:31:45;;;;;;;25.17;3.63;;;1.80;99.90;;;;;;5093176;28;20635;-75
2022/01/17 04:34:10;;;;;;;18.03;2.80;;;1.80;99.90;;;;;;5093479;28;20225;-74
2022/01/17 04:36:36;;;;;;;23.63;2.93;;;1.80;99.90;;;;;;5093300;28;20176;-74
2022/01/17 04:39:03;;;;;;;17.30;3.90;;;1.80;99.90;;;;;;5093323;28;20212;-74
2022/01/17 04:41:37;;;;;;;17.97;3.87;;;1.80;99.90;;;;;;5093178;28;20203;-75
2022/01/17 04:46:50;;;;;;;21.70;3.37;;;1.70;99.90;;;;;;5060952;28;20690;-74
2022/01/17 04:49:16;;;;;;;22.77;3.57;;;1.70;99.90;;;;;;5092803;28;20207;-74
2022/01/17 04:51:42;;;;;;;17.17;3.17;;;1.70;99.90;;;;;;5093013;28;20183;-75
2022/01/17 04:57:12;;;;;;;26.30;4.00;;;1.70;99.90;;;;;;5051030;28;20277;-72
2022/01/17 04:59:39;;;;;;;16.80;3.60;;;1.70;99.90;;;;;;5050042;28;20184;-73
2022/01/17 05:02:06;;;;;;;16.83;2.87;;;1.70;99.90;;;;;;5075441;28;20183;-75
2022/01/17 05:04:33;;;;;;;18.13;2.97;;;1.70;99.90;;;;;;5113109;28;20192;-73
2022/01/17 05:06:58;;;;;;;9.03;2.43;;;1.70;99.90;;;;;;5112798;28;20184;-73
2022/01/17 05:09:24;;;;;;;21.40;3.17;;;1.60;99.90;;;;;;5113049;28;20672;-73
2022/01/17 05:11:51;;;;;;;22.37;3.17;;;1.60;99.90;;;;;;5103360;28;20201;-74
2022/01/17 05:14:17;;;;;;;21.73;3.17;;;1.60;99.90;;;;;;5092802;28;20172;-76
2022/01/17 05:16:49;;;;;;;30.73;3.10;;;1.60;99.90;;;;;;5099279;28;20183;-75
2022/01/17 05:21:59;;;;;;;15.37;3.23;;;1.60;99.90;;;;;;5106617;28;20179;-74
2022/01/17 05:24:25;;;;;;;19.47;3.03;;;1.50;99.90;;;;;;5094212;28;20180;-75
2022/01/17 05:26:50;;;;;;;17.77;3.53;;;0.60;99.90;;;;;;5090804;28;20647;-74
2022/01/17 05:29:17;;;;;;;23.37;3.70;;;1.60;99.90;;;;;;5091205;28;20313;-74
2022/01/17 05:31:42;;;;;;;22.73;3.50;;;1.60;99.90;;;;;;5092393;28;20643;-73
2022/01/17 05:34:08;;;;;;;20.67;3.20;;;1.60;99.90;;;;;;5092236;28;20182;-73
2022/01/17 05:36:34;;;;;;;21.97;4.10;;;1.60;99.90;;;;;;5097289;28;20236;-73
2022/01/17 05:39:00;;;;;;;20.70;3.27;;;1.50;99.90;;;;;;5101936;28;20184;-73
2022/01/17 05:41:25;;;;;;;21.60;3.00;;;1.50;99.90;;;;;;5091837;28;20179;-73
2022/01/17 05:43:51;;;;;;;17.47;2.77;;;1.50;99.90;;;;;;5090800;28;20168;-72
2022/01/17 05:46:17;;;;;;;28.47;2.80;;;1.50;99.90;;;;;;5091675;28;20242;-77
2022/01/17 05:48:43;;;;;;;30.60;3.63;;;1.40;99.90;;;;;;5091988;28;20601;-80
2022/01/17 05:51:08;;;;;;;25.93;3.77;;;1.50;99.90;;;;;;5092317;28;20548;-64
2022/01/17 05:53:34;;;;;;;16.93;3.60;;;1.40;99.90;;;;;;5110750;28;20175;-64
2022/01/17 05:56:00;;;;;;;25.20;3.10;;;1.40;99.90;;;;;;5112092;27;20166;-76
2022/01/17 05:58:26;;;;;;;23.60;3.47;;;1.40;99.90;;;;;;5112514;28;20621;-75
2022/01/17 06:00:52;;;;;;;26.43;3.77;;;1.40;99.90;;;;;;5111571;28;20179;-76
2022/01/17 06:03:18;;;;;;;15.27;2.77;;;1.40;99.90;;;;;;5091796;28;20247;-77
2022/01/17 06:05:45;;;;;;;22.23;4.10;;;1.50;99.90;;;;;;5091293;28;20721;-77
2022/01/17 06:08:10;;;;;;;24.43;3.80;;;1.50;99.90;;;;;;5093854;28;20739;-77
2022/01/17 06:10:38;;;;;;;20.90;3.10;;;1.50;99.90;;;;;;5110233;28;20175;-78
2022/01/17 06:13:04;;;;;;;20.70;3.27;;;1.40;99.90;;;;;;5091375;28;20662;-77
2022/01/17 06:15:30;;;;;;;34.63;3.93;;;1.40;99.90;;;;;;5091546;28;20183;-79
2022/01/17 06:17:55;;;;;;;22.93;3.23;;;1.40;99.90;;;;;;5090358;28;20175;-78
2022/01/17 06:20:21;;;;;;;24.47;3.80;;;1.40;99.90;;;;;;5095069;28;20182;-78
2022/01/17 06:22:47;;;;;;;16.20;3.30;;;1.30;99.90;;;;;;5105647;28;20471;-78
2022/01/17 06:25:13;;;;;;;25.97;4.40;;;1.20;99.90;;;;;;5091640;28;20171;-78
2022/01/17 06:27:39;;;;;;;18.47;3.70;;;1.10;99.90;;;;;;5091379;28;20184;-76
2022/01/17 06:30:07;;;;;;;28.07;3.93;;;1.00;99.90;;;;;;5091451;28;20186;-76
2022/01/17 06:32:34;;;;;;;22.17;4.00;;;1.00;99.90;;;;;;5091382;28;20183;-80
2022/01/17 06:35:03;;;;;;;23.20;3.70;;;1.00;99.90;;;;;;5110314;28;20223;-79
2022/01/17 06:37:29;;;;;;;14.70;3.57;;;1.00;99.90;;;;;;5111129;28;20312;-79
2022/01/17 06:39:55;;;;;;;24.40;3.73;;;1.00;99.90;;;;;;5111476;28;20258;-79
2022/01/17 06:42:22;;;;;;;20.60;3.30;;;1.00;99.90;;;;;;5109984;28;20530;-79
2022/01/17 06:44:48;;;;;;;23.40;3.27;;;1.00;99.90;;;;;;5092480;28;20310;-76
2022/01/17 06:47:14;;;;;;;22.03;3.00;;;0.90;99.90;;;;;;5091123;28;20179;-79
2022/01/17 06:49:40;;;;;;;33.00;3.77;;;0.90;99.90;;;;;;5091044;28;20539;-76
2022/01/17 06:52:06;;;;;;;27.97;3.77;;;0.90;99.90;;;;;;5090974;28;20176;-76
2022/01/17 06:54:32;;;;;;;17.23;3.67;;;0.90;99.90;;;;;;5092666;28;20172;-77
2022/01/17 06:56:57;;;;;;;21.07;3.80;;;0.90;99.90;;;;;;5089732;28;20170;-77
2022/01/17 06:59:23;;;;;;;24.47;3.63;;;0.80;99.90;;;;;;5090986;28;20207;-76
2022/01/17 07:01:49;;;;;;;26.83;3.90;;;0.90;99.90;;;;;;5093575;28;20180;-77
2022/01/17 07:04:15;;;;;;;16.53;4.53;;;0.80;99.90;;;;;;5097632;28;20481;-75
2022/01/17 07:06:41;;;;;;;22.17;4.17;;;0.70;99.90;;;;;;5100895;28;20703;-74
2022/01/17 07:09:16;;;;;;;31.63;4.00;;;0.70;99.90;;;;;;5110749;28;20203;-73
2022/01/17 07:11:43;;;;;;;19.23;4.17;;;0.70;99.90;;;;;;5110760;28;20257;-72
2022/01/17 07:14:10;;;;;;;25.87;4.53;;;0.80;99.90;;;;;;5098208;28;20262;-72
2022/01/17 07:16:38;;;;;;;23.23;4.23;;;0.80;99.90;;;;;;5095358;28;20164;-73
2022/01/17 07:19:05;;;;;;;23.43;4.30;;;0.80;99.90;;;;;;5094007;28;20180;-73
2022/01/17 07:21:31;;;;;;;21.70;5.67;;;0.80;99.90;;;;;;5106991;28;20183;-73
2022/01/17 07:23:57;;;;;;;17.07;4.83;;;0.90;99.90;;;;;;5115185;28;20211;-73
2022/01/17 07:26:23;;;;;;;30.30;5.03;;;0.90;99.90;;;;;;5115074;28;20191;-73
2022/01/17 07:28:49;;;;;;;15.93;4.20;;;0.90;99.90;;;;;;5113157;28;20214;-73
2022/01/17 07:31:18;;;;;;;19.70;4.00;;;1.00;99.90;;;;;;5114920;28;20175;-73
2022/01/17 07:33:44;;;;;;;22.37;4.27;;;1.00;99.90;;;;;;5114838;28;20638;-73
2022/01/17 07:36:16;;;;;;;19.70;4.63;;;1.00;99.90;;;;;;5096078;28;20179;-74
2022/01/17 07:38:42;;;;;;;20.60;3.83;;;1.00;99.90;;;;;;5094282;28;20666;-72
2022/01/17 07:41:08;;;;;;;17.40;4.43;;;1.00;99.90;;;;;;5105080;28;20183;-73
2022/01/17 07:43:36;;;;;;;19.97;4.33;;;0.90;99.90;;;;;;5114425;28;20183;-72
2022/01/17 07:46:18;;;;;;;25.97;5.10;;;0.90;99.90;;;;;;5112503;28;20219;-70
2022/01/17 07:48:57;;;;;;;23.10;4.63;;;0.80;99.90;;;;;;5114264;28;20226;-71
2022/01/17 07:51:27;;;;;;;25.57;5.13;;;0.80;99.90;;;;;;5113499;28;20178;-70
2022/01/17 07:53:54;;;;;;;27.03;5.30;;;0.90;99.90;;;;;;5101758;28;20283;-72
2022/01/17 07:56:20;;;;;;;27.47;5.03;;;0.80;99.90;;;;;;5114154;28;20645;-71
2022/01/17 07:58:46;;;;;;;24.17;4.47;;;0.90;99.90;;;;;;5114361;28;20175;-72
2022/01/17 08:01:12;;;;;;;23.67;5.77;;;0.90;99.90;;;;;;5114344;28;20172;-70
2022/01/17 08:03:38;;;;;;;23.10;5.30;;;0.90;99.90;;;;;;5097297;28;20184;-70
2022/01/17 08:06:04;;;;;;;33.20;5.23;;;0.90;99.90;;;;;;5093872;28;20531;-70
2022/01/17 08:08:30;;;;;;;28.73;4.63;;;0.90;99.90;;;;;;5093519;28;20546;-70
2022/01/17 08:10:56;;;;;;;18.90;4.00;;;1.00;99.90;;;;;;5093705;28;20179;-70
2022/01/17 08:13:21;;;;;;;20.33;4.30;;;1.00;99.90;;;;;;5094180;28;20168;-70
2022/01/17 08:15:47;;;;;;;31.80;4.47;;;1.00;99.90;;;;;;5099233;28;20167;-70
2022/01/17 08:18:14;;;;;;;18.80;4.20;;;0.90;99.90;;;;;;5114186;28;20163;-70
2022/01/17 08:20:41;;;;;;;25.27;5.27;;;0.90;99.90;;;;;;5114163;28;20693;-70
2022/01/17 08:23:08;;;;;;;30.60;5.23;;;1.00;99.90;;;;;;5113737;28;20172;-70
2022/01/17 08:25:34;;;;;;;19.47;4.43;;;1.00;99.90;;;;;;5111936;28;20179;-70
2022/01/17 08:28:00;;;;;;;19.70;3.80;;;1.10;99.90;;;;;;5113925;28;20191;-70
2022/01/17 08:30:26;;;;;;;26.77;4.40;;;1.10;99.90;;;;;;5112805;28;20523;-70
2022/01/17 08:32:55;;;;;;;21.20;4.63;;;1.20;99.90;;;;;;5113860;28;20220;-72
2022/01/17 08:35:22;;;;;;;19.13;4.13;;;1.30;99.90;;;;;;5111887;28;20658;-69
2022/01/17 08:37:48;;;;;;;27.80;4.83;;;1.40;99.90;;;;;;5113578;28;20224;-68
2022/01/17 08:40:15;;;;;;;20.30;4.70;;;1.50;99.90;;;;;;5101451;28;20537;-68
2022/01/17 08:42:41;;;;;;;26.63;4.37;;;1.60;99.90;;;;;;5110287;28;20250;-72
2022/01/17 08:45:10;;;;;;;26.90;8.23;;;1.60;99.90;;;;;;5093052;28;20227;-70
2022/01/17 08:47:36;;;;;;;28.50;9.07;;;1.60;99.90;;;;;;5092961;28;20183;-70
2022/01/17 08:50:05;;;;;;;26.53;7.50;;;1.70;99.90;;;;;;5092694;28;20208;-71
2022/01/17 08:52:31;;;;;;;29.47;7.73;;;2.20;99.90;;;;;;5106364;28;20176;-71
2022/01/17 08:54:57;;;;;;;34.17;8.43;;;3.10;99.90;;;;;;5098460;28;20252;-71
2022/01/17 08:57:24;;;;;;;34.80;9.83;;;3.20;99.90;;;;;;5100561;28;20188;-70
2022/01/17 08:59:50;;;;;;;36.73;10.23;;;3.10;99.90;;;;;;5098217;28;20186;-71
2022/01/17 09:02:16;;;;;;;32.57;11.80;;;3.50;99.90;;;;;;5106257;28;20187;-68
2022/01/17 09:04:42;;;;;;;28.43;10.20;;;4.40;99.90;;;;;;5091309;28;20211;-71
2022/01/17 09:07:13;;;;;;;27.30;7.67;;;5.00;99.90;;;;;;5094213;28;20200;-83
2022/01/17 09:09:40;;;;;;;26.87;7.90;;;5.10;99.90;;;;;;5100893;28;20218;-81
2022/01/17 09:12:08;;;;;;;32.43;7.57;;;5.50;99.90;;;;;;5115981;28;20182;-82
2022/01/17 09:14:34;;;;;;;24.27;8.10;;;5.50;99.90;;;;;;5114221;28;20258;-79
2022/01/17 09:17:02;;;;;;;27.77;10.97;;;5.30;99.90;;;;;;5113272;28;20175;-77
2022/01/17 09:19:28;;;;;;;38.80;14.87;;;5.10;99.90;;;;;;5110852;28;20176;-75
2022/01/17 09:21:54;;;;;;;39.53;19.67;;;5.50;99.90;;;;;;5112748;28;20367;-75
2022/01/17 09:24:20;;;;;;;63.27;27.97;;;5.80;99.90;;;;;;5108785;28;20174;-71
2022/01/17 09:26:46;;;;;;;58.97;31.47;;;5.70;99.90;;;;;;5111554;28;20178;-71
2022/01/17 09:29:13;;;;;;;55.53;28.63;;;5.60;99.90;;;;;;5107475;28;20207;-73
2022/01/17 09:31:39;;;;;;;55.23;27.77;;;5.60;99.90;;;;;;5092048;28;20172;-71
2022/01/17 09:34:05;;;;;;;56.10;29.67;;;6.70;99.90;;;;;;5092509;28;20175;-73
2022/01/17 09:36:34;;;;;;;55.30;25.07;;;7.40;99.90;;;;;;5112418;28;20593;-73
2022/01/17 09:39:05;;;;;;;95.70;46.43;;;7.20;99.90;;;;;;5101412;28;20174;-73
2022/01/17 09:41:31;;;;;;;173.20;81.07;;;7.40;99.90;;;;;;5090878;28;20251;-71
2022/01/17 09:43:58;;;;;;;90.67;40.70;;;7.50;99.90;;;;;;5100125;28;20193;-65
2022/01/17 09:46:27;;;;;;;46.43;20.10;;;7.70;99.90;;;;;;5098450;28;20224;-65
2022/01/17 09:49:01;;;;;;;48.47;20.37;;;7.40;99.90;;;;;;5097492;28;20496;-63
2022/01/17 09:51:51;;;;;;;65.57;32.50;;;7.50;99.90;;;;;;5106260;28;21895;-63
2022/01/17 09:54:20;;;;;;;69.93;31.80;;;8.10;99.90;;;;;;5104698;27;20183;-64
2022/01/17 09:56:50;;;;;;;64.00;29.63;;;7.80;99.90;;;;;;5091649;28;20180;-64
2022/01/17 09:59:16;;;;;;;60.07;31.07;;;8.10;99.90;;;;;;5090398;28;20171;-65
2022/01/17 10:01:43;;;;;;;80.93;48.70;;;7.70;99.90;;;;;;5090211;28;20168;-64
2022/01/17 10:04:09;;;;;;;79.23;46.60;;;7.10;99.90;;;;;;5091771;28;20171;-64
2022/01/17 10:06:36;;;;;;;82.73;47.67;;;6.60;99.90;;;;;;5111879;28;20254;-65
2022/01/17 10:09:13;;;;;;;59.50;32.47;;;6.20;99.90;;;;;;5111390;28;20231;-64
2022/01/17 10:12:02;;;;;;;39.13;16.47;;;6.00;99.90;;;;;;5107805;28;20163;-65
2022/01/17 10:14:31;;;;;;;33.70;12.33;;;5.70;99.90;;;;;;5090162;28;20164;-66
2022/01/17 10:16:57;;;;;;;23.50;8.83;;;5.40;99.90;;;;;;5091658;28;20180;-65
2022/01/17 10:19:27;;;;;;;33.30;11.83;;;5.50;99.90;;;;;;5091128;28;20182;-65
2022/01/17 10:21:56;;;;;;;40.77;9.53;;;5.50;99.90;;;;;;5091175;28;20182;-65
2022/01/17 10:24:28;;;;;;;23.00;8.50;;;5.40;99.90;;;;;;5091340;28;20212;-65
2022/01/17 10:35:35;;;;;;;23.03;6.03;;;5.40;99.90;;;;;;5091387;28;20579;-66
2022/01/17 10:38:20;;;;;;;28.80;6.80;;;5.80;99.90;;;;;;5091515;28;20164;-66
2022/01/17 10:40:58;;;;;;;22.90;7.03;;;6.10;99.90;;;;;;5110333;28;20233;-66
2022/01/17 10:43:35;;;;;;;28.40;7.73;;;6.50;99.90;;;;;;5110586;28;20179;-66
2022/01/17 10:46:12;;;;;;;33.10;8.90;;;6.60;99.90;;;;;;5110766;28;20214;-66
2022/01/17 10:48:43;;;;;;;30.17;10.83;;;7.00;99.90;;;;;;5111170;28;20267;-66
2022/01/17 10:51:10;;;;;;;38.97;10.43;;;8.40;99.90;;;;;;5103463;28;20194;-66
2022/01/17 10:53:40;;;;;;;30.60;8.47;;;9.40;99.90;;;;;;5104301;28;20177;-66
2022/01/17 10:56:09;;;;;;;24.37;8.77;;;9.60;99.90;;;;;;5108800;27;20289;-66
2022/01/17 10:58:38;;;;;;;30.27;7.97;;;10.30;99.90;;;;;;5100200;28;20186;-65
2022/01/17 11:01:16;;;;;;;22.63;6.13;;;11.20;99.90;;;;;;5115700;27;20166;-65
2022/01/17 11:03:44;;;;;;;23.17;7.00;;;10.80;99.90;;;;;;5115836;28;20183;-66
2022/01/17 11:06:19;;;;;;;19.60;6.80;;;11.40;99.90;;;;;;5115781;27;20702;-65
2022/01/17 11:08:46;;;;;;;25.07;6.20;;;13.00;99.90;;;;;;5095581;28;20286;-63
2022/01/17 11:11:12;;;;;;;33.77;14.27;;;11.90;99.90;;;;;;5098880;28;20508;-64
2022/01/17 11:13:47;;;;;;;41.83;19.70;;;11.20;99.90;;;;;;5114526;28;20630;-64
2022/01/17 11:16:13;;;;;;;43.88;20.45;;;11.60;99.90;;;;;;5115310;27;20182;-64
2022/01/17 11:18:44;;;;;;;45.65;20.58;;;11.50;99.90;;;;;;5104237;28;20217;-64
2022/01/17 11:21:13;;;;;;;43.67;18.65;;;12.20;99.90;;;;;;5117853;27;20162;-65
2022/01/17 11:23:45;;;;;;;31.23;15.45;;;11.80;99.90;;;;;;5103067;27;20207;-64
2022/01/17 11:26:12;;;;;;;29.65;12.90;;;12.30;99.90;;;;;;5096695;28;20646;-64
2022/01/17 11:28:39;;;;;;;35.38;12.52;;;13.30;99.90;;;;;;5112863;28;20210;-64
2022/01/17 11:31:08;;;;;;;32.47;13.00;;;14.20;99.90;;;;;;5116546;28;20323;-64
2022/01/17 11:33:35;;;;;;;28.45;10.95;;;14.50;99.90;;;;;;5101313;27;20167;-65
2022/01/17 11:36:01;;;;;;;32.75;11.02;;;14.80;99.90;;;;;;5104610;28;20175;-63
2022/01/17 11:38:31;;;;;;;27.80;11.57;;;15.80;99.90;;;;;;5117703;27;20186;-65
2022/01/17 11:40:59;;;;;;;19.45;7.93;;;17.70;99.90;;;;;;5117642;27;20163;-65
2022/01/17 11:43:33;;;;;;;23.25;8.52;;;17.30;99.90;;;;;;5114882;27;20637;-65
2022/01/17 11:46:03;;;;;;;20.60;6.45;;;19.60;99.90;;;;;;5117422;27;20221;-65
2022/01/17 11:48:31;;;;;;;15.77;5.70;;;20.00;99.90;;;;;;5114036;27;20222;-65
2022/01/17 11:51:16;;;;;;;17.65;6.50;;;21.10;99.90;;;;;;5097147;28;20172;-65
2022/01/17 11:53:45;;;;;;;16.80;5.10;;;21.80;99.90;;;;;;5096665;28;20221;-65
2022/01/17 11:56:15;;;;;;;13.38;4.22;;;22.40;99.90;;;;;;5097244;28;20164;-65
2022/01/17 11:58:45;;;;;;;11.80;4.18;;;22.70;99.90;;;;;;5095855;28;20200;-65
2022/01/17 12:01:17;;;;;;;15.02;4.03;;;22.70;99.90;;;;;;5097051;28;20217;-65
2022/01/17 12:03:49;;;;;;;18.23;4.25;;;22.90;99.90;;;;;;5095887;28;20176;-66
2022/01/17 12:06:25;;;;;;;13.52;3.67;;;22.90;99.90;;;;;;5092214;28;20172;-65
2022/01/17 12:09:16;;;;;;;17.02;3.67;;;23.60;99.90;;;;;;5093848;28;20200;-65
2022/01/17 12:11:42;;;;;;;14.43;3.65;;;23.50;99.90;;;;;;5093833;28;20213;-65
2022/01/17 12:14:27;;;;;;;14.00;3.30;;;23.30;99.90;;;;;;5093789;28;20179;-65
2022/01/17 12:17:14;;;;;;;22.05;3.65;;;23.30;99.90;;;;;;5093784;28;20171;-66
2022/01/17 12:20:06;;;;;;;17.02;3.83;;;23.40;99.90;;;;;;5093616;28;20203;-64
2022/01/17 12:22:32;;;;;;;17.55;4.05;;;22.90;99.90;;;;;;5093490;28;20194;-64
2022/01/17 12:25:00;;;;;;;20.00;4.50;;;23.10;99.90;;;;;;5093594;28;20171;-65
2022/01/17 12:27:28;;;;;;;19.15;4.25;;;23.10;99.90;;;;;;5092013;28;20183;-65
2022/01/17 12:30:12;;;;;;;15.55;4.10;;;22.80;99.90;;;;;;5093315;28;20440;-66
2022/01/17 12:32:39;;;;;;;19.95;4.32;;;23.30;99.90;;;;;;5093215;28;20172;-65
2022/01/17 12:35:05;;;;;;;21.95;4.50;;;23.00;99.90;;;;;;5093391;28;20168;-66
2022/01/17 12:37:47;;;;;;;18.17;4.53;;;23.50;99.90;;;;;;5093208;28;20547;-64
2022/01/17 12:40:20;;;;;;;16.17;4.07;;;23.30;99.90;;;;;;5093075;28;20168;-66
2022/01/17 12:43:01;;;;;;;19.67;4.65;;;22.60;99.90;;;;;;5093313;28;20164;-66
2022/01/17 12:45:43;;;;;;;17.15;3.90;;;23.10;99.90;;;;;;5092899;28;20226;-65
2022/01/17 12:48:12;;;;;;;19.45;4.45;;;23.00;99.90;;;;;;5093737;28;20211;-66
2022/01/17 12:50:40;;;;;;;19.02;4.30;;;23.20;99.90;;;;;;5113414;28;20170;-66
2022/01/17 12:53:07;;;;;;;27.90;4.10;;;23.60;99.90;;;;;;5113418;28;20655;-66
2022/01/17 12:55:39;;;;;;;27.48;4.75;;;23.90;99.90;;;;;;5113319;28;20174;-66
2022/01/17 12:58:24;;;;;;;24.98;4.72;;;23.80;99.90;;;;;;5113221;28;20629;-65
2022/01/17 13:00:56;;;;;;;35.53;5.70;;;23.80;99.90;;;;;;5113220;28;20172;-65
2022/01/17 13:03:25;;;;;;;18.85;4.57;;;24.20;99.90;;;;;;5113224;28;20630;-66
2022/01/17 13:05:52;;;;;;;17.00;4.45;;;24.10;99.90;;;;;;5113176;28;20163;-66
2022/01/17 13:08:19;;;;;;;22.02;4.68;;;24.20;99.90;;;;;;5112848;28;20202;-66
2022/01/17 13:10:45;;;;;;;23.13;4.70;;;23.70;99.90;;;;;;5113020;28;20637;-66
2022/01/17 13:13:16;;;;;;;23.23;4.15;;;23.50;99.90;;;;;;5113108;28;20178;-65
2022/01/17 13:16:02;;;;;;;22.33;4.82;;;23.60;99.90;;;;;;5113004;28;20178;-65
2022/01/17 13:18:29;;;;;;;24.00;4.80;;;23.40;99.90;;;;;;5113010;28;20203;-66
2022/01/17 13:20:57;;;;;;;28.80;5.00;;;23.10;99.90;;;;;;5112839;28;20169;-66
2022/01/17 13:23:32;;;;;;;20.13;4.05;;;23.40;99.90;;;;;;5113085;28;20179;-66
2022/01/17 13:25:59;;;;;;;27.30;4.32;;;22.40;99.90;;;;;;5112599;28;20171;-66